sensor_id;sensor_type;location;lat;lon;timestamp;P1;durP1;ratioP1;P2;durP2;ratioP2
16403;SDS011;8311;50.158;8.642;2023-05-15T00:02:40;2.33;;;1.70;;
16403;SDS011;8311;50.158;8.642;2023-05-15T00:05:34;1.40;;;1.25;;
16403;SDS011;8311;50.158;8.642;2023-05-15T00:08:27;1.70;;;1.50;;
16403;SDS011;8311;50.158;8.642;2023-05-15T00:11:20;1.95;;;1.50;;
16403;SDS011;8311;50.158;8.642;2023-05-15T00:14:15;7.72;;;1.90;;
16403;SDS011;8311;50.158;8.642;2023-05-15T00:17:10;2.30;;;1.70;;
16403;SDS011;8311;50.158;8.642;2023-05-15T00:20:04;2.03;;;1.60;;
16403;SDS011;8311;50.158;8.642;2023-05-15T00:22:59;2.03;;;1.50;;
16403;SDS011;8311;50.158;8.642;2023-05-15T00:25:53;1.83;;;1.30;;
16403;SDS011;8311;50.158;8.642;2023-05-15T00:28:46;2.65;;;1.60;;
16403;SDS011;8311;50.158;8.642;2023-05-15T00:31:41;2.47;;;1.65;;
16403;SDS011;8311;50.158;8.642;2023-05-15T00:34:34;1.73;;;1.38;;
16403;SDS011;8311;50.158;8.642;2023-05-15T00:37:29;2.10;;;1.40;;
16403;SDS011;8311;50.158;8.642;2023-05-15T00:40:23;2.38;;;1.58;;
16403;SDS011;8311;50.158;8.642;2023-05-15T00:43:18;3.80;;;1.73;;
16403;SDS011;8311;50.158;8.642;2023-05-15T00:46:12;2.20;;;1.50;;
16403;SDS011;8311;50.158;8.642;2023-05-15T00:49:08;1.63;;;1.52;;
16403;SDS011;8311;50.158;8.642;2023-05-15T00:52:04;3.22;;;1.92;;
16403;SDS011;8311;50.158;8.642;2023-05-15T00:54:59;2.30;;;1.48;;
16403;SDS011;8311;50.158;8.642;2023-05-15T00:57:51;2.63;;;1.63;;
16403;SDS011;8311;50.158;8.642;2023-05-15T01:00:46;2.78;;;1.98;;
16403;SDS011;8311;50.158;8.642;2023-05-15T01:03:40;2.45;;;1.67;;
16403;SDS011;8311;50.158;8.642;2023-05-15T01:06:36;2.33;;;1.50;;
16403;SDS011;8311;50.158;8.642;2023-05-15T01:09:29;2.60;;;1.60;;
16403;SDS011;8311;50.158;8.642;2023-05-15T01:12:23;2.92;;;1.70;;
16403;SDS011;8311;50.158;8.642;2023-05-15T01:15:18;2.53;;;1.63;;
16403;SDS011;8311;50.158;8.642;2023-05-15T01:18:12;2.22;;;1.45;;
16403;SDS011;8311;50.158;8.642;2023-05-15T01:21:24;2.28;;;1.50;;
16403;SDS011;8311;50.158;8.642;2023-05-15T01:24:40;2.60;;;1.70;;
16403;SDS011;8311;50.158;8.642;2023-05-15T01:27:47;2.30;;;1.70;;
16403;SDS011;8311;50.158;8.642;2023-05-15T01:30:43;3.97;;;1.60;;
16403;SDS011;8311;50.158;8.642;2023-05-15T01:33:39;1.85;;;1.48;;
16403;SDS011;8311;50.158;8.642;2023-05-15T01:36:40;2.28;;;1.58;;
16403;SDS011;8311;50.158;8.642;2023-05-15T01:39:37;2.17;;;1.60;;
16403;SDS011;8311;50.158;8.642;2023-05-15T01:42:33;1.85;;;1.63;;
16403;SDS011;8311;50.158;8.642;2023-05-15T01:45:29;1.58;;;1.33;;
16403;SDS011;8311;50.158;8.642;2023-05-15T01:48:25;1.45;;;1.30;;
16403;SDS011;8311;50.158;8.642;2023-05-15T01:51:20;1.55;;;1.30;;
16403;SDS011;8311;50.158;8.642;2023-05-15T01:54:15;1.77;;;1.40;;
16403;SDS011;8311;50.158;8.642;2023-05-15T01:57:09;1.50;;;1.23;;
16403;SDS011;8311;50.158;8.642;2023-05-15T02:00:04;2.28;;;1.45;;
16403;SDS011;8311;50.158;8.642;2023-05-15T02:03:01;2.55;;;1.63;;
16403;SDS011;8311;50.158;8.642;2023-05-15T02:05:56;2.67;;;1.85;;
16403;SDS011;8311;50.158;8.642;2023-05-15T02:08:51;2.00;;;1.38;;
16403;SDS011;8311;50.158;8.642;2023-05-15T02:11:46;3.05;;;1.40;;
16403;SDS011;8311;50.158;8.642;2023-05-15T02:14:40;1.60;;;1.38;;
16403;SDS011;8311;50.158;8.642;2023-05-15T02:17:34;2.95;;;1.40;;
16403;SDS011;8311;50.158;8.642;2023-05-15T02:20:29;2.35;;;1.50;;
16403;SDS011;8311;50.158;8.642;2023-05-15T02:23:22;2.70;;;1.45;;
16403;SDS011;8311;50.158;8.642;2023-05-15T02:26:19;1.90;;;1.50;;
16403;SDS011;8311;50.158;8.642;2023-05-15T02:29:25;2.72;;;1.63;;
16403;SDS011;8311;50.158;8.642;2023-05-15T02:32:26;2.60;;;1.50;;
16403;SDS011;8311;50.158;8.642;2023-05-15T02:35:28;2.08;;;1.55;;
16403;SDS011;8311;50.158;8.642;2023-05-15T02:38:29;2.55;;;1.50;;
16403;SDS011;8311;50.158;8.642;2023-05-15T02:41:27;1.85;;;1.30;;
16403;SDS011;8311;50.158;8.642;2023-05-15T02:44:24;1.40;;;1.30;;
16403;SDS011;8311;50.158;8.642;2023-05-15T02:47:18;2.50;;;1.38;;
16403;SDS011;8311;50.158;8.642;2023-05-15T02:50:13;1.55;;;1.30;;
16403;SDS011;8311;50.158;8.642;2023-05-15T02:53:07;1.90;;;1.35;;
16403;SDS011;8311;50.158;8.642;2023-05-15T02:56:01;2.13;;;1.50;;
16403;SDS011;8311;50.158;8.642;2023-05-15T02:58:53;1.70;;;1.45;;
16403;SDS011;8311;50.158;8.642;2023-05-15T03:01:46;2.00;;;1.35;;
16403;SDS011;8311;50.158;8.642;2023-05-15T03:04:39;3.55;;;1.50;;
16403;SDS011;8311;50.158;8.642;2023-05-15T03:07:33;2.30;;;1.58;;
16403;SDS011;8311;50.158;8.642;2023-05-15T03:10:28;2.45;;;1.70;;
16403;SDS011;8311;50.158;8.642;2023-05-15T03:13:22;2.35;;;1.80;;
16403;SDS011;8311;50.158;8.642;2023-05-15T03:16:15;3.17;;;1.33;;
16403;SDS011;8311;50.158;8.642;2023-05-15T03:19:09;2.10;;;1.50;;
16403;SDS011;8311;50.158;8.642;2023-05-15T03:22:03;2.58;;;1.40;;
16403;SDS011;8311;50.158;8.642;2023-05-15T03:24:56;1.98;;;1.40;;
16403;SDS011;8311;50.158;8.642;2023-05-15T03:27:53;2.83;;;1.50;;
16403;SDS011;8311;50.158;8.642;2023-05-15T03:30:47;1.33;;;1.23;;
16403;SDS011;8311;50.158;8.642;2023-05-15T03:33:40;3.85;;;1.75;;
16403;SDS011;8311;50.158;8.642;2023-05-15T03:36:33;1.83;;;1.40;;
16403;SDS011;8311;50.158;8.642;2023-05-15T03:39:27;2.20;;;1.60;;
16403;SDS011;8311;50.158;8.642;2023-05-15T03:42:20;1.33;;;1.13;;
16403;SDS011;8311;50.158;8.642;2023-05-15T03:45:16;2.63;;;1.70;;
16403;SDS011;8311;50.158;8.642;2023-05-15T03:48:10;2.30;;;1.63;;
16403;SDS011;8311;50.158;8.642;2023-05-15T03:51:03;2.80;;;1.80;;
16403;SDS011;8311;50.158;8.642;2023-05-15T03:53:56;2.22;;;1.73;;
16403;SDS011;8311;50.158;8.642;2023-05-15T03:56:49;2.58;;;1.65;;
16403;SDS011;8311;50.158;8.642;2023-05-15T03:59:42;2.03;;;1.70;;
16403;SDS011;8311;50.158;8.642;2023-05-15T04:02:37;1.40;;;1.27;;
16403;SDS011;8311;50.158;8.642;2023-05-15T04:05:31;2.33;;;1.60;;
16403;SDS011;8311;50.158;8.642;2023-05-15T04:08:25;1.38;;;1.17;;
16403;SDS011;8311;50.158;8.642;2023-05-15T04:11:17;2.20;;;1.50;;
16403;SDS011;8311;50.158;8.642;2023-05-15T04:14:11;2.00;;;1.42;;
16403;SDS011;8311;50.158;8.642;2023-05-15T04:17:05;3.95;;;1.75;;
16403;SDS011;8311;50.158;8.642;2023-05-15T04:19:59;4.07;;;1.70;;
16403;SDS011;8311;50.158;8.642;2023-05-15T04:22:53;2.22;;;1.48;;
16403;SDS011;8311;50.158;8.642;2023-05-15T04:25:46;3.90;;;1.65;;
16403;SDS011;8311;50.158;8.642;2023-05-15T04:28:39;3.72;;;1.73;;
16403;SDS011;8311;50.158;8.642;2023-05-15T04:31:47;2.88;;;1.50;;
16403;SDS011;8311;50.158;8.642;2023-05-15T04:34:40;2.45;;;1.63;;
16403;SDS011;8311;50.158;8.642;2023-05-15T04:37:34;2.05;;;1.65;;
16403;SDS011;8311;50.158;8.642;2023-05-15T04:40:27;1.90;;;1.55;;
16403;SDS011;8311;50.158;8.642;2023-05-15T04:43:21;3.25;;;1.65;;
16403;SDS011;8311;50.158;8.642;2023-05-15T04:46:15;3.50;;;1.80;;
16403;SDS011;8311;50.158;8.642;2023-05-15T04:49:08;3.72;;;1.50;;
16403;SDS011;8311;50.158;8.642;2023-05-15T04:52:01;2.72;;;1.67;;
16403;SDS011;8311;50.158;8.642;2023-05-15T04:54:56;2.22;;;1.70;;
16403;SDS011;8311;50.158;8.642;2023-05-15T04:57:49;2.35;;;1.73;;
16403;SDS011;8311;50.158;8.642;2023-05-15T05:00:43;3.50;;;1.80;;
16403;SDS011;8311;50.158;8.642;2023-05-15T05:03:36;2.20;;;1.70;;
16403;SDS011;8311;50.158;8.642;2023-05-15T05:06:29;2.15;;;1.27;;
16403;SDS011;8311;50.158;8.642;2023-05-15T05:09:22;2.22;;;1.40;;
16403;SDS011;8311;50.158;8.642;2023-05-15T05:12:16;2.28;;;1.80;;
16403;SDS011;8311;50.158;8.642;2023-05-15T05:15:10;2.22;;;1.60;;
16403;SDS011;8311;50.158;8.642;2023-05-15T05:18:04;2.60;;;1.75;;
16403;SDS011;8311;50.158;8.642;2023-05-15T05:20:58;3.35;;;1.70;;
16403;SDS011;8311;50.158;8.642;2023-05-15T05:23:52;2.83;;;1.52;;
16403;SDS011;8311;50.158;8.642;2023-05-15T05:26:46;2.78;;;2.00;;
16403;SDS011;8311;50.158;8.642;2023-05-15T05:29:41;2.47;;;1.70;;
16403;SDS011;8311;50.158;8.642;2023-05-15T05:32:35;2.03;;;1.50;;
16403;SDS011;8311;50.158;8.642;2023-05-15T05:35:28;3.03;;;1.85;;
16403;SDS011;8311;50.158;8.642;2023-05-15T05:38:20;2.78;;;1.80;;
16403;SDS011;8311;50.158;8.642;2023-05-15T05:41:14;1.90;;;1.75;;
16403;SDS011;8311;50.158;8.642;2023-05-15T05:44:08;2.58;;;1.60;;
16403;SDS011;8311;50.158;8.642;2023-05-15T05:47:03;2.78;;;1.83;;
16403;SDS011;8311;50.158;8.642;2023-05-15T05:49:57;3.15;;;2.00;;
16403;SDS011;8311;50.158;8.642;2023-05-15T05:52:50;2.90;;;2.22;;
16403;SDS011;8311;50.158;8.642;2023-05-15T05:55:43;3.28;;;2.20;;
16403;SDS011;8311;50.158;8.642;2023-05-15T05:58:36;3.78;;;1.90;;
16403;SDS011;8311;50.158;8.642;2023-05-15T06:01:29;2.42;;;1.67;;
16403;SDS011;8311;50.158;8.642;2023-05-15T06:04:23;2.72;;;1.60;;
16403;SDS011;8311;50.158;8.642;2023-05-15T06:07:17;2.92;;;1.95;;
16403;SDS011;8311;50.158;8.642;2023-05-15T06:10:10;2.30;;;1.60;;
16403;SDS011;8311;50.158;8.642;2023-05-15T06:13:04;2.88;;;1.80;;
16403;SDS011;8311;50.158;8.642;2023-05-15T06:15:57;3.30;;;2.20;;
16403;SDS011;8311;50.158;8.642;2023-05-15T06:18:50;3.53;;;1.70;;
16403;SDS011;8311;50.158;8.642;2023-05-15T06:21:44;3.03;;;2.00;;
16403;SDS011;8311;50.158;8.642;2023-05-15T06:24:38;2.00;;;1.50;;
16403;SDS011;8311;50.158;8.642;2023-05-15T06:27:31;2.72;;;1.90;;
16403;SDS011;8311;50.158;8.642;2023-05-15T06:30:24;3.90;;;2.00;;
16403;SDS011;8311;50.158;8.642;2023-05-15T06:33:18;2.25;;;1.60;;
16403;SDS011;8311;50.158;8.642;2023-05-15T06:36:12;2.97;;;1.90;;
16403;SDS011;8311;50.158;8.642;2023-05-15T06:39:06;2.47;;;1.50;;
16403;SDS011;8311;50.158;8.642;2023-05-15T06:42:01;2.10;;;1.60;;
16403;SDS011;8311;50.158;8.642;2023-05-15T06:44:55;2.63;;;1.80;;
16403;SDS011;8311;50.158;8.642;2023-05-15T06:47:48;3.28;;;1.90;;
16403;SDS011;8311;50.158;8.642;2023-05-15T06:50:41;2.55;;;1.75;;
16403;SDS011;8311;50.158;8.642;2023-05-15T06:53:34;5.07;;;2.78;;
16403;SDS011;8311;50.158;8.642;2023-05-15T06:56:28;24.83;;;17.88;;
16403;SDS011;8311;50.158;8.642;2023-05-15T06:59:20;10.68;;;8.20;;
16403;SDS011;8311;50.158;8.642;2023-05-15T07:02:14;9.52;;;7.00;;
16403;SDS011;8311;50.158;8.642;2023-05-15T07:05:07;7.53;;;5.30;;
16403;SDS011;8311;50.158;8.642;2023-05-15T07:08:02;6.93;;;4.10;;
16403;SDS011;8311;50.158;8.642;2023-05-15T07:10:55;6.70;;;3.50;;
16403;SDS011;8311;50.158;8.642;2023-05-15T07:13:50;4.32;;;3.15;;
16403;SDS011;8311;50.158;8.642;2023-05-15T07:16:44;4.68;;;2.63;;
16403;SDS011;8311;50.158;8.642;2023-05-15T07:19:38;6.25;;;3.05;;
16403;SDS011;8311;50.158;8.642;2023-05-15T07:22:31;3.92;;;2.95;;
16403;SDS011;8311;50.158;8.642;2023-05-15T07:25:35;11.43;;;3.08;;
16403;SDS011;8311;50.158;8.642;2023-05-15T07:28:28;5.80;;;3.35;;
16403;SDS011;8311;50.158;8.642;2023-05-15T07:31:23;5.22;;;3.20;;
16403;SDS011;8311;50.158;8.642;2023-05-15T07:34:17;4.72;;;3.28;;
16403;SDS011;8311;50.158;8.642;2023-05-15T07:37:10;5.13;;;3.03;;
16403;SDS011;8311;50.158;8.642;2023-05-15T07:40:06;4.15;;;3.00;;
16403;SDS011;8311;50.158;8.642;2023-05-15T07:43:00;6.00;;;3.13;;
16403;SDS011;8311;50.158;8.642;2023-05-15T07:45:53;4.32;;;2.90;;
16403;SDS011;8311;50.158;8.642;2023-05-15T07:48:47;5.75;;;3.10;;
16403;SDS011;8311;50.158;8.642;2023-05-15T07:51:41;6.47;;;3.67;;
16403;SDS011;8311;50.158;8.642;2023-05-15T07:54:34;3.72;;;2.67;;
16403;SDS011;8311;50.158;8.642;2023-05-15T07:57:27;6.65;;;3.65;;
16403;SDS011;8311;50.158;8.642;2023-05-15T08:00:20;7.22;;;3.67;;
16403;SDS011;8311;50.158;8.642;2023-05-15T08:03:14;6.82;;;3.22;;
16403;SDS011;8311;50.158;8.642;2023-05-15T08:06:08;4.45;;;2.92;;
16403;SDS011;8311;50.158;8.642;2023-05-15T08:09:02;5.40;;;3.20;;
16403;SDS011;8311;50.158;8.642;2023-05-15T08:11:55;5.05;;;3.20;;
16403;SDS011;8311;50.158;8.642;2023-05-15T08:15:07;4.85;;;2.95;;
16403;SDS011;8311;50.158;8.642;2023-05-15T08:18:03;7.80;;;3.63;;
16403;SDS011;8311;50.158;8.642;2023-05-15T08:21:00;4.63;;;3.13;;
16403;SDS011;8311;50.158;8.642;2023-05-15T08:23:56;5.10;;;3.00;;
16403;SDS011;8311;50.158;8.642;2023-05-15T08:26:50;4.95;;;2.88;;
16403;SDS011;8311;50.158;8.642;2023-05-15T08:29:43;5.70;;;3.30;;
16403;SDS011;8311;50.158;8.642;2023-05-15T08:32:37;5.50;;;3.05;;
16403;SDS011;8311;50.158;8.642;2023-05-15T08:35:30;4.75;;;2.58;;
16403;SDS011;8311;50.158;8.642;2023-05-15T08:38:24;3.90;;;2.58;;
16403;SDS011;8311;50.158;8.642;2023-05-15T08:41:20;3.30;;;2.47;;
16403;SDS011;8311;50.158;8.642;2023-05-15T08:44:31;8.00;;;3.17;;
16403;SDS011;8311;50.158;8.642;2023-05-15T08:47:25;5.90;;;3.00;;
16403;SDS011;8311;50.158;8.642;2023-05-15T08:50:20;4.95;;;3.33;;
16403;SDS011;8311;50.158;8.642;2023-05-15T08:53:15;5.82;;;2.83;;
16403;SDS011;8311;50.158;8.642;2023-05-15T08:56:09;4.75;;;2.53;;
16403;SDS011;8311;50.158;8.642;2023-05-15T08:59:03;4.88;;;2.83;;
16403;SDS011;8311;50.158;8.642;2023-05-15T09:01:57;5.25;;;3.00;;
16403;SDS011;8311;50.158;8.642;2023-05-15T09:04:51;6.43;;;2.78;;
16403;SDS011;8311;50.158;8.642;2023-05-15T09:07:44;4.85;;;3.10;;
16403;SDS011;8311;50.158;8.642;2023-05-15T09:10:38;6.22;;;2.90;;
16403;SDS011;8311;50.158;8.642;2023-05-15T09:13:32;4.85;;;3.15;;
16403;SDS011;8311;50.158;8.642;2023-05-15T09:16:27;6.45;;;3.08;;
16403;SDS011;8311;50.158;8.642;2023-05-15T09:19:20;8.95;;;3.45;;
16403;SDS011;8311;50.158;8.642;2023-05-15T09:22:15;5.68;;;3.20;;
16403;SDS011;8311;50.158;8.642;2023-05-15T09:25:13;5.75;;;3.25;;
16403;SDS011;8311;50.158;8.642;2023-05-15T09:28:25;8.10;;;3.35;;
16403;SDS011;8311;50.158;8.642;2023-05-15T09:31:20;7.03;;;2.78;;
16403;SDS011;8311;50.158;8.642;2023-05-15T09:34:14;5.15;;;3.08;;
16403;SDS011;8311;50.158;8.642;2023-05-15T09:37:08;4.45;;;2.97;;
16403;SDS011;8311;50.158;8.642;2023-05-15T09:40:08;4.50;;;3.00;;
16403;SDS011;8311;50.158;8.642;2023-05-15T09:43:02;4.70;;;3.15;;
16403;SDS011;8311;50.158;8.642;2023-05-15T09:45:55;6.20;;;2.90;;
16403;SDS011;8311;50.158;8.642;2023-05-15T09:48:48;6.15;;;3.03;;
16403;SDS011;8311;50.158;8.642;2023-05-15T09:51:47;4.93;;;3.03;;
16403;SDS011;8311;50.158;8.642;2023-05-15T09:54:43;5.85;;;2.90;;
16403;SDS011;8311;50.158;8.642;2023-05-15T09:57:40;5.72;;;3.25;;
16403;SDS011;8311;50.158;8.642;2023-05-15T10:00:34;6.35;;;3.35;;
16403;SDS011;8311;50.158;8.642;2023-05-15T10:03:39;6.45;;;3.03;;
16403;SDS011;8311;50.158;8.642;2023-05-15T10:06:34;4.55;;;3.05;;
16403;SDS011;8311;50.158;8.642;2023-05-15T10:09:29;5.38;;;2.92;;
16403;SDS011;8311;50.158;8.642;2023-05-15T10:12:24;6.57;;;3.38;;
16403;SDS011;8311;50.158;8.642;2023-05-15T10:15:18;5.97;;;3.25;;
16403;SDS011;8311;50.158;8.642;2023-05-15T10:18:12;5.55;;;3.17;;
16403;SDS011;8311;50.158;8.642;2023-05-15T10:21:06;6.85;;;3.30;;
16403;SDS011;8311;50.158;8.642;2023-05-15T10:24:00;5.18;;;3.28;;
16403;SDS011;8311;50.158;8.642;2023-05-15T10:26:56;6.63;;;3.55;;
16403;SDS011;8311;50.158;8.642;2023-05-15T10:29:50;5.85;;;3.25;;
16403;SDS011;8311;50.158;8.642;2023-05-15T10:32:44;6.88;;;3.92;;
16403;SDS011;8311;50.158;8.642;2023-05-15T10:35:38;7.18;;;3.85;;
16403;SDS011;8311;50.158;8.642;2023-05-15T10:38:32;6.15;;;3.47;;
16403;SDS011;8311;50.158;8.642;2023-05-15T10:41:27;5.97;;;3.75;;
16403;SDS011;8311;50.158;8.642;2023-05-15T10:44:24;6.32;;;3.58;;
16403;SDS011;8311;50.158;8.642;2023-05-15T10:47:17;5.88;;;4.18;;
16403;SDS011;8311;50.158;8.642;2023-05-15T10:50:11;5.88;;;3.78;;
16403;SDS011;8311;50.158;8.642;2023-05-15T10:53:05;7.13;;;3.80;;
16403;SDS011;8311;50.158;8.642;2023-05-15T10:56:01;5.50;;;4.05;;
16403;SDS011;8311;50.158;8.642;2023-05-15T10:58:55;6.65;;;4.70;;
16403;SDS011;8311;50.158;8.642;2023-05-15T11:01:50;7.82;;;4.40;;
16403;SDS011;8311;50.158;8.642;2023-05-15T11:04:43;7.10;;;3.80;;
16403;SDS011;8311;50.158;8.642;2023-05-15T11:07:36;7.07;;;3.95;;
16403;SDS011;8311;50.158;8.642;2023-05-15T11:10:35;6.55;;;4.28;;
16403;SDS011;8311;50.158;8.642;2023-05-15T11:16:58;7.60;;;5.45;;
16403;SDS011;8311;50.158;8.642;2023-05-15T11:19:55;8.13;;;5.03;;
16403;SDS011;8311;50.158;8.642;2023-05-15T11:22:56;9.98;;;6.10;;
16403;SDS011;8311;50.158;8.642;2023-05-15T11:25:51;8.85;;;5.40;;
16403;SDS011;8311;50.158;8.642;2023-05-15T11:28:45;10.40;;;5.45;;
16403;SDS011;8311;50.158;8.642;2023-05-15T11:31:38;8.23;;;6.32;;
16403;SDS011;8311;50.158;8.642;2023-05-15T11:34:33;7.50;;;5.43;;
16403;SDS011;8311;50.158;8.642;2023-05-15T11:37:32;8.65;;;5.03;;
16403;SDS011;8311;50.158;8.642;2023-05-15T11:40:30;10.20;;;6.25;;
16403;SDS011;8311;50.158;8.642;2023-05-15T11:43:34;8.55;;;5.95;;
16403;SDS011;8311;50.158;8.642;2023-05-15T11:46:28;7.93;;;5.63;;
16403;SDS011;8311;50.158;8.642;2023-05-15T11:49:22;8.23;;;5.72;;
16403;SDS011;8311;50.158;8.642;2023-05-15T11:52:17;8.40;;;6.13;;
16403;SDS011;8311;50.158;8.642;2023-05-15T11:55:10;7.75;;;5.90;;
16403;SDS011;8311;50.158;8.642;2023-05-15T11:58:04;9.23;;;6.20;;
16403;SDS011;8311;50.158;8.642;2023-05-15T12:00:59;9.93;;;6.28;;
16403;SDS011;8311;50.158;8.642;2023-05-15T12:03:52;10.82;;;6.55;;
16403;SDS011;8311;50.158;8.642;2023-05-15T12:06:46;12.95;;;6.57;;
16403;SDS011;8311;50.158;8.642;2023-05-15T12:09:41;9.00;;;6.65;;
16403;SDS011;8311;50.158;8.642;2023-05-15T12:12:38;13.27;;;6.47;;
16403;SDS011;8311;50.158;8.642;2023-05-15T12:15:35;9.25;;;6.68;;
16403;SDS011;8311;50.158;8.642;2023-05-15T12:18:29;10.73;;;6.85;;
16403;SDS011;8311;50.158;8.642;2023-05-15T12:21:24;9.80;;;6.43;;
16403;SDS011;8311;50.158;8.642;2023-05-15T12:24:18;11.35;;;6.97;;
16403;SDS011;8311;50.158;8.642;2023-05-15T12:27:13;10.05;;;7.10;;
16403;SDS011;8311;50.158;8.642;2023-05-15T12:30:08;9.13;;;6.70;;
16403;SDS011;8311;50.158;8.642;2023-05-15T12:33:03;11.88;;;7.38;;
16403;SDS011;8311;50.158;8.642;2023-05-15T12:35:57;11.40;;;7.68;;
16403;SDS011;8311;50.158;8.642;2023-05-15T12:38:52;10.50;;;7.20;;
16403;SDS011;8311;50.158;8.642;2023-05-15T12:41:45;10.60;;;7.05;;
16403;SDS011;8311;50.158;8.642;2023-05-15T12:44:42;11.40;;;7.20;;
16403;SDS011;8311;50.158;8.642;2023-05-15T12:47:35;11.85;;;6.75;;
16403;SDS011;8311;50.158;8.642;2023-05-15T12:50:30;10.15;;;6.65;;
16403;SDS011;8311;50.158;8.642;2023-05-15T12:53:24;10.52;;;6.88;;
16403;SDS011;8311;50.158;8.642;2023-05-15T12:56:17;9.75;;;6.90;;
16403;SDS011;8311;50.158;8.642;2023-05-15T12:59:11;9.27;;;6.85;;
16403;SDS011;8311;50.158;8.642;2023-05-15T13:02:09;9.07;;;6.40;;
16403;SDS011;8311;50.158;8.642;2023-05-15T13:05:02;8.57;;;6.53;;
16403;SDS011;8311;50.158;8.642;2023-05-15T13:07:56;8.63;;;6.30;;
16403;SDS011;8311;50.158;8.642;2023-05-15T13:10:55;7.80;;;6.15;;
16403;SDS011;8311;50.158;8.642;2023-05-15T13:13:49;8.02;;;5.90;;
16403;SDS011;8311;50.158;8.642;2023-05-15T13:16:45;7.68;;;5.50;;
16403;SDS011;8311;50.158;8.642;2023-05-15T13:19:41;8.73;;;5.88;;
16403;SDS011;8311;50.158;8.642;2023-05-15T13:22:34;8.73;;;5.38;;
16403;SDS011;8311;50.158;8.642;2023-05-15T13:25:27;8.48;;;5.68;;
16403;SDS011;8311;50.158;8.642;2023-05-15T13:28:22;7.80;;;5.05;;
16403;SDS011;8311;50.158;8.642;2023-05-15T13:31:15;7.43;;;5.60;;
16403;SDS011;8311;50.158;8.642;2023-05-15T13:34:08;8.90;;;5.45;;
16403;SDS011;8311;50.158;8.642;2023-05-15T13:37:03;10.65;;;5.10;;
16403;SDS011;8311;50.158;8.642;2023-05-15T13:39:56;8.35;;;5.25;;
16403;SDS011;8311;50.158;8.642;2023-05-15T13:42:49;7.82;;;5.35;;
16403;SDS011;8311;50.158;8.642;2023-05-15T13:45:42;7.75;;;4.95;;
16403;SDS011;8311;50.158;8.642;2023-05-15T13:48:36;7.30;;;5.22;;
16403;SDS011;8311;50.158;8.642;2023-05-15T13:51:29;9.25;;;5.53;;
16403;SDS011;8311;50.158;8.642;2023-05-15T13:54:23;7.45;;;4.78;;
16403;SDS011;8311;50.158;8.642;2023-05-15T13:57:17;10.52;;;5.20;;
16403;SDS011;8311;50.158;8.642;2023-05-15T14:00:11;7.43;;;5.35;;
16403;SDS011;8311;50.158;8.642;2023-05-15T14:03:05;6.75;;;4.38;;
16403;SDS011;8311;50.158;8.642;2023-05-15T14:05:58;8.18;;;5.05;;
16403;SDS011;8311;50.158;8.642;2023-05-15T14:08:51;8.93;;;4.70;;
16403;SDS011;8311;50.158;8.642;2023-05-15T14:11:46;10.52;;;4.70;;
16403;SDS011;8311;50.158;8.642;2023-05-15T14:14:39;7.63;;;4.63;;
16403;SDS011;8311;50.158;8.642;2023-05-15T14:17:32;6.10;;;4.20;;
16403;SDS011;8311;50.158;8.642;2023-05-15T14:20:27;6.10;;;4.15;;
16403;SDS011;8311;50.158;8.642;2023-05-15T14:23:20;7.72;;;4.55;;
16403;SDS011;8311;50.158;8.642;2023-05-15T14:26:13;8.20;;;4.63;;
16403;SDS011;8311;50.158;8.642;2023-05-15T14:29:08;6.03;;;4.32;;
16403;SDS011;8311;50.158;8.642;2023-05-15T14:32:02;6.97;;;4.32;;
16403;SDS011;8311;50.158;8.642;2023-05-15T14:34:56;6.32;;;4.60;;
16403;SDS011;8311;50.158;8.642;2023-05-15T14:37:50;6.53;;;4.20;;
16403;SDS011;8311;50.158;8.642;2023-05-15T14:40:43;6.68;;;4.03;;
16403;SDS011;8311;50.158;8.642;2023-05-15T14:43:36;6.85;;;4.18;;
16403;SDS011;8311;50.158;8.642;2023-05-15T14:46:30;6.18;;;4.32;;
16403;SDS011;8311;50.158;8.642;2023-05-15T14:49:24;6.85;;;4.15;;
16403;SDS011;8311;50.158;8.642;2023-05-15T14:52:17;7.00;;;4.25;;
16403;SDS011;8311;50.158;8.642;2023-05-15T14:55:10;5.85;;;4.15;;
16403;SDS011;8311;50.158;8.642;2023-05-15T14:58:04;5.78;;;4.10;;
16403;SDS011;8311;50.158;8.642;2023-05-15T15:00:57;5.20;;;3.65;;
16403;SDS011;8311;50.158;8.642;2023-05-15T15:03:52;5.63;;;3.83;;
16403;SDS011;8311;50.158;8.642;2023-05-15T15:06:45;6.75;;;4.13;;
16403;SDS011;8311;50.158;8.642;2023-05-15T15:09:39;5.93;;;3.88;;
16403;SDS011;8311;50.158;8.642;2023-05-15T15:12:32;6.30;;;4.20;;
16403;SDS011;8311;50.158;8.642;2023-05-15T15:15:25;6.72;;;4.28;;
16403;SDS011;8311;50.158;8.642;2023-05-15T15:18:19;7.55;;;4.15;;
16403;SDS011;8311;50.158;8.642;2023-05-15T15:21:14;5.80;;;3.80;;
16403;SDS011;8311;50.158;8.642;2023-05-15T15:24:07;6.68;;;4.68;;
16403;SDS011;8311;50.158;8.642;2023-05-15T15:27:00;6.72;;;4.28;;
16403;SDS011;8311;50.158;8.642;2023-05-15T15:29:53;8.15;;;4.53;;
16403;SDS011;8311;50.158;8.642;2023-05-15T15:32:46;6.38;;;3.88;;
16403;SDS011;8311;50.158;8.642;2023-05-15T15:35:39;6.35;;;3.88;;
16403;SDS011;8311;50.158;8.642;2023-05-15T15:38:34;7.57;;;4.13;;
16403;SDS011;8311;50.158;8.642;2023-05-15T15:41:28;6.07;;;3.78;;
16403;SDS011;8311;50.158;8.642;2023-05-15T15:44:22;7.00;;;4.32;;
16403;SDS011;8311;50.158;8.642;2023-05-15T15:47:15;7.97;;;4.25;;
16403;SDS011;8311;50.158;8.642;2023-05-15T15:50:09;6.20;;;4.25;;
16403;SDS011;8311;50.158;8.642;2023-05-15T15:53:03;6.53;;;4.18;;
16403;SDS011;8311;50.158;8.642;2023-05-15T15:55:58;5.22;;;3.78;;
16403;SDS011;8311;50.158;8.642;2023-05-15T15:58:51;6.30;;;4.43;;
16403;SDS011;8311;50.158;8.642;2023-05-15T16:01:45;7.32;;;4.32;;
16403;SDS011;8311;50.158;8.642;2023-05-15T16:04:38;9.25;;;4.50;;
16403;SDS011;8311;50.158;8.642;2023-05-15T16:07:32;6.38;;;4.20;;
16403;SDS011;8311;50.158;8.642;2023-05-15T16:10:25;5.68;;;4.05;;
16403;SDS011;8311;50.158;8.642;2023-05-15T16:13:21;5.45;;;3.83;;
16403;SDS011;8311;50.158;8.642;2023-05-15T16:16:15;6.80;;;3.97;;
16403;SDS011;8311;50.158;8.642;2023-05-15T16:19:08;6.78;;;4.40;;
16403;SDS011;8311;50.158;8.642;2023-05-15T16:22:01;6.25;;;4.05;;
16403;SDS011;8311;50.158;8.642;2023-05-15T16:24:54;6.80;;;4.28;;
16403;SDS011;8311;50.158;8.642;2023-05-15T16:27:47;5.88;;;4.32;;
16403;SDS011;8311;50.158;8.642;2023-05-15T16:30:42;5.88;;;3.92;;
16403;SDS011;8311;50.158;8.642;2023-05-15T16:33:41;6.40;;;4.70;;
16403;SDS011;8311;50.158;8.642;2023-05-15T16:36:34;5.47;;;3.90;;
16403;SDS011;8311;50.158;8.642;2023-05-15T16:39:27;7.05;;;4.53;;
16403;SDS011;8311;50.158;8.642;2023-05-15T16:42:22;5.82;;;4.20;;
16403;SDS011;8311;50.158;8.642;2023-05-15T16:45:15;6.05;;;4.03;;
16403;SDS011;8311;50.158;8.642;2023-05-15T16:48:10;7.13;;;4.25;;
16403;SDS011;8311;50.158;8.642;2023-05-15T16:51:04;8.18;;;4.22;;
16403;SDS011;8311;50.158;8.642;2023-05-15T16:53:57;6.35;;;3.92;;
16403;SDS011;8311;50.158;8.642;2023-05-15T16:56:50;6.97;;;4.40;;
16403;SDS011;8311;50.158;8.642;2023-05-15T16:59:43;6.38;;;4.32;;
16403;SDS011;8311;50.158;8.642;2023-05-15T17:02:37;6.15;;;4.65;;
16403;SDS011;8311;50.158;8.642;2023-05-15T17:05:32;6.97;;;4.50;;
16403;SDS011;8311;50.158;8.642;2023-05-15T17:08:25;5.47;;;3.90;;
16403;SDS011;8311;50.158;8.642;2023-05-15T17:11:19;6.47;;;4.20;;
16403;SDS011;8311;50.158;8.642;2023-05-15T17:14:12;6.40;;;4.25;;
16403;SDS011;8311;50.158;8.642;2023-05-15T17:17:05;7.30;;;4.63;;
16403;SDS011;8311;50.158;8.642;2023-05-15T17:19:58;6.63;;;4.28;;
16403;SDS011;8311;50.158;8.642;2023-05-15T17:22:54;6.68;;;4.25;;
16403;SDS011;8311;50.158;8.642;2023-05-15T17:25:48;8.32;;;4.10;;
16403;SDS011;8311;50.158;8.642;2023-05-15T17:28:41;5.25;;;3.58;;
16403;SDS011;8311;50.158;8.642;2023-05-15T17:31:34;6.03;;;4.20;;
16403;SDS011;8311;50.158;8.642;2023-05-15T17:34:27;5.47;;;4.18;;
16403;SDS011;8311;50.158;8.642;2023-05-15T17:37:20;5.50;;;3.90;;
16403;SDS011;8311;50.158;8.642;2023-05-15T17:40:15;5.75;;;3.83;;
16403;SDS011;8311;50.158;8.642;2023-05-15T17:43:08;7.35;;;4.30;;
16403;SDS011;8311;50.158;8.642;2023-05-15T17:46:01;6.97;;;4.05;;
16403;SDS011;8311;50.158;8.642;2023-05-15T17:48:56;6.78;;;4.53;;
16403;SDS011;8311;50.158;8.642;2023-05-15T17:51:48;6.80;;;3.95;;